UTTT/TAS METAR and TAF weather

Enter ICAO airport designator
Station Type Date Time Source
UTTT METAR 2019/06/18 04:30 UTC NOAA

UTTT 180430Z 27004KT 240V300 CAVOK 29/07 Q1009 R08L/CLRD70 NOSIG


Station Type Date Time Source
UTTT Decoded METAR 2019/06/18 04:30 UTC NOAA

Tashkent, Uzbekistan (UTTT) 41-16N 069-16E 488M
Jun 18, 2019 - 12:30 AM EDT / 2019.06.18 0430 UTC
Wind: from the W (270 degrees) at 5 MPH (4 KT) (direction variable):0
Visibility: greater than 7 mile(s):0
Temperature: 84 F (29 C)
Dew Point: 44 F (7 C)
Relative Humidity: 24%
Pressure (altimeter): 29.80 in. Hg (1009 hPa)
ob: UTTT 180430Z 27004KT 240V300 CAVOK 29/07 Q1009 R08L/CLRD70 NOSIG
cycle: 4

Station Type Date Time Source
UTTT TAF 2019/06/17 18:09 UTC NOAA

TAF UTTT 171700Z 1718/1818 07010KT CAVOK
TEMPO 1720/1806 32018KT FEW060CB

Example: see airport list